createdAt,value
2022-11-28T00:04:14.323Z,18.58
2022-11-28T00:09:17.492Z,22.33
2022-11-28T00:14:20.499Z,22.75
2022-11-28T00:19:22.139Z,20.23
2022-11-28T00:24:23.846Z,25.35
2022-11-28T00:29:25.556Z,24.35
2022-11-28T00:34:27.223Z,24.25
2022-11-28T00:39:28.927Z,19.10
2022-11-28T00:44:30.594Z,19.55
2022-11-28T00:49:32.314Z,20.63
2022-11-28T00:54:34.479Z,19.13
2022-11-28T00:59:36.167Z,16.80
2022-11-28T01:04:37.841Z,19.33
2022-11-28T01:09:39.452Z,22.10
2022-11-28T01:14:41.381Z,17.45
2022-11-28T01:19:43.248Z,21.02
2022-11-28T01:24:45.045Z,19.10
2022-11-28T01:29:46.868Z,18.27
2022-11-28T01:34:48.607Z,20.30
2022-11-28T01:39:50.268Z,21.40
2022-11-28T01:44:54.881Z,19.42
2022-11-28T01:49:56.657Z,20.35
2022-11-28T01:55:00.420Z,22.70
2022-11-28T02:00:13.005Z,19.95
2022-11-28T02:05:16.719Z,22.38
2022-11-28T02:10:23.019Z,22.23
2022-11-28T02:15:37.765Z,19.80
2022-11-28T02:21:03.278Z,21.27
2022-11-28T02:26:27.890Z,20.52
2022-11-28T02:31:33.639Z,17.17
2022-11-28T02:36:43.953Z,17.30
2022-11-28T02:42:00.474Z,18.98
2022-11-28T02:47:18.706Z,20.55
2022-11-28T02:52:23.788Z,18.42
2022-11-28T02:57:40.082Z,19.23
2022-11-28T03:02:42.806Z,17.92
2022-11-28T03:08:03.821Z,16.40
2022-11-28T03:13:31.969Z,23.75
2022-11-28T03:18:44.736Z,15.23
2022-11-28T03:23:54.992Z,17.65
2022-11-28T03:29:11.854Z,17.88
2022-11-28T03:34:17.912Z,18.38
2022-11-28T03:39:22.767Z,18.13
2022-11-28T03:44:28.627Z,18.65
2022-11-28T03:49:37.583Z,19.00
2022-11-28T03:54:58.916Z,15.73
2022-11-28T04:00:04.616Z,18.67
2022-11-28T04:05:34.577Z,24.40
2022-11-28T04:10:43.397Z,18.42
2022-11-28T04:16:04.836Z,17.70
2022-11-28T04:21:14.238Z,19.50
2022-11-28T04:26:23.554Z,22.48
2022-11-28T04:31:26.304Z,18.33
2022-11-28T04:36:29.092Z,17.35
2022-11-28T04:41:35.699Z,17.35
2022-11-28T04:46:42.102Z,19.88
2022-11-28T04:52:15.312Z,18.55
2022-11-28T04:57:33.592Z,19.20
2022-11-28T05:02:36.096Z,19.80
2022-11-28T05:07:37.881Z,20.33
2022-11-28T05:12:39.773Z,23.40
2022-11-28T05:17:42.661Z,22.00
2022-11-28T05:22:44.360Z,19.02
2022-11-28T05:27:45.969Z,19.55
2022-11-28T05:32:47.781Z,20.27
2022-11-28T05:37:49.412Z,18.00
2022-11-28T05:42:51.084Z,21.30
2022-11-28T05:47:52.738Z,20.60
2022-11-28T05:52:54.378Z,20.02
2022-11-28T05:57:56.444Z,21.52
2022-11-28T06:03:01.499Z,17.52
2022-11-28T06:08:03.562Z,24.73
2022-11-28T06:13:05.539Z,19.63
2022-11-28T06:18:07.437Z,20.50
2022-11-28T06:23:09.080Z,20.90
2022-11-28T06:28:10.812Z,19.65
2022-11-28T06:33:12.442Z,20.23
2022-11-28T06:38:14.533Z,19.30
2022-11-28T06:43:16.277Z,18.65
2022-11-28T06:48:17.968Z,20.25
2022-11-28T06:53:20.078Z,20.10
2022-11-28T06:58:21.706Z,19.05
2022-11-28T07:03:23.614Z,18.38
2022-11-28T07:08:25.316Z,18.88
2022-11-28T07:13:27.003Z,22.25
2022-11-28T07:18:28.653Z,18.38
2022-11-28T07:23:30.269Z,18.88
2022-11-28T07:28:32.934Z,19.85
2022-11-28T07:33:35.022Z,17.95
2022-11-28T07:38:36.742Z,20.52
2022-11-28T07:43:38.909Z,17.85
2022-11-28T07:48:40.702Z,16.80
2022-11-28T07:53:42.986Z,17.25
2022-11-28T07:58:45.879Z,15.73
2022-11-28T08:03:47.954Z,17.17
2022-11-28T08:08:50.108Z,15.32
2022-11-28T08:13:54.978Z,17.38
2022-11-28T08:19:03.302Z,15.55
2022-11-28T08:24:05.716Z,15.48
2022-11-28T08:29:07.393Z,16.77
2022-11-28T08:34:10.708Z,15.07
2022-11-28T08:39:27.813Z,15.48
2022-11-28T08:44:30.718Z,12.32
2022-11-28T08:49:32.741Z,15.50
2022-11-28T08:54:34.366Z,15.63
2022-11-28T08:59:36.239Z,15.27
2022-11-28T09:04:38.075Z,12.45
2022-11-28T09:09:39.732Z,16.30
2022-11-28T09:14:41.422Z,14.35
2022-11-28T09:19:43.339Z,15.45
2022-11-28T09:24:45.160Z,13.70
2022-11-28T09:29:46.787Z,15.10
2022-11-28T09:34:48.474Z,16.75
2022-11-28T09:40:12.129Z,19.25
2022-11-28T09:45:20.320Z,16.75
2022-11-28T09:50:28.858Z,14.25
2022-11-28T09:55:38.505Z,16.55
2022-11-28T10:00:52.643Z,15.20
2022-11-28T10:06:05.102Z,17.13
2022-11-28T10:11:23.101Z,17.73
2022-11-28T10:16:48.782Z,17.92
2022-11-28T10:21:59.308Z,18.48
2022-11-28T10:27:04.664Z,18.95
2022-11-28T10:32:06.791Z,20.65
2022-11-28T10:37:19.963Z,20.83
2022-11-28T10:42:50.510Z,18.58
2022-11-28T10:48:38.452Z,20.65
2022-11-28T10:58:49.326Z,21.35
2022-11-28T11:03:50.966Z,19.40
2022-11-28T11:08:53.063Z,21.40
2022-11-28T11:14:09.311Z,20.27
2022-11-28T11:19:23.699Z,19.02
2022-11-28T11:24:25.334Z,23.45
2022-11-28T11:29:35.362Z,19.27
2022-11-28T11:34:43.202Z,18.73
2022-11-28T11:39:52.591Z,18.95
2022-11-28T11:44:54.531Z,17.80
2022-11-28T11:50:03.781Z,20.63
2022-11-28T11:55:12.524Z,18.88
2022-11-28T12:00:18.496Z,20.02
2022-11-28T12:05:28.354Z,21.17
2022-11-28T12:10:34.472Z,19.85
2022-11-28T12:15:48.306Z,18.92
2022-11-28T12:21:02.302Z,18.42
2022-11-28T12:26:22.200Z,15.95
2022-11-28T12:31:42.729Z,16.50
2022-11-28T12:37:03.122Z,22.23
2022-11-28T12:42:13.718Z,22.95
2022-11-28T12:47:51.520Z,22.08
2022-11-28T12:53:05.285Z,22.55
2022-11-28T12:58:18.989Z,20.10
2022-11-28T13:03:58.332Z,24.33
2022-11-28T13:09:02.961Z,20.75
2022-11-28T13:14:10.685Z,22.45
2022-11-28T13:19:27.035Z,20.17
2022-11-28T13:24:36.926Z,21.23
2022-11-28T13:30:03.585Z,20.30
2022-11-28T13:35:08.335Z,19.13
2022-11-28T13:40:28.347Z,21.70
2022-11-28T13:45:35.070Z,25.70
2022-11-28T13:50:39.339Z,21.52
2022-11-28T13:55:46.839Z,22.75
2022-11-28T14:01:18.968Z,20.23
2022-11-28T14:11:51.051Z,24.23
2022-11-28T14:17:14.301Z,22.70
2022-11-28T14:22:41.252Z,24.00
2022-11-28T14:27:54.495Z,24.85
2022-11-28T14:33:02.518Z,29.73
2022-11-28T14:38:29.908Z,29.38
2022-11-28T14:43:44.710Z,25.20
2022-11-28T14:48:58.803Z,22.88
2022-11-28T14:54:00.558Z,24.52
2022-11-28T14:59:03.743Z,22.13
2022-11-28T15:04:37.824Z,20.35
2022-11-28T15:09:57.729Z,21.35
2022-11-28T15:14:59.483Z,21.25
2022-11-28T15:20:06.071Z,22.48
2022-11-28T15:25:22.079Z,21.58
2022-11-28T15:30:26.569Z,24.35
2022-11-28T15:35:28.834Z,21.10
2022-11-28T15:40:35.717Z,20.42
2022-11-28T15:45:39.930Z,25.65
2022-11-28T15:50:50.164Z,24.17
2022-11-28T15:56:08.634Z,24.63
2022-11-28T16:01:20.657Z,24.15
2022-11-28T16:06:24.691Z,26.25
2022-11-28T16:11:28.546Z,23.23
2022-11-28T16:16:32.010Z,25.02
2022-11-28T16:21:55.519Z,25.92
2022-11-28T16:27:02.463Z,29.45
2022-11-28T16:37:26.909Z,25.85
2022-11-28T16:42:29.094Z,25.02
2022-11-28T16:47:33.063Z,22.55
2022-11-28T16:52:48.598Z,29.73
2022-11-28T16:57:55.410Z,26.08
2022-11-28T17:02:57.158Z,31.35
2022-11-28T17:08:01.444Z,27.25
2022-11-28T17:13:03.112Z,24.90
2022-11-28T17:18:04.815Z,27.98
2022-11-28T17:23:06.501Z,27.25
2022-11-28T17:28:09.149Z,27.33
2022-11-28T17:33:19.909Z,25.85
2022-11-28T17:38:21.533Z,21.17
2022-11-28T17:43:23.524Z,25.73
2022-11-28T17:48:25.220Z,27.20
2022-11-28T17:53:27.541Z,26.25
2022-11-28T17:58:29.319Z,26.50
2022-11-28T18:03:31.360Z,25.55
2022-11-28T18:08:33.119Z,26.67
2022-11-28T18:13:35.145Z,26.23
2022-11-28T18:18:38.056Z,25.30
2022-11-28T18:23:41.864Z,26.95
2022-11-28T18:28:45.374Z,29.40
2022-11-28T18:33:47.335Z,27.73
2022-11-28T18:38:54.125Z,24.42
2022-11-28T18:43:57.023Z,31.50
2022-11-28T18:48:58.724Z,26.65
2022-11-28T18:54:04.260Z,30.50
2022-11-28T18:59:07.242Z,29.63
2022-11-28T19:04:15.624Z,27.05
2022-11-28T19:09:19.068Z,30.52
2022-11-28T19:14:21.536Z,28.45
2022-11-28T19:19:23.765Z,26.70
2022-11-28T19:24:27.592Z,31.10
2022-11-28T19:29:29.323Z,30.02
2022-11-28T19:34:31.247Z,28.95
2022-11-28T19:39:32.937Z,32.28
2022-11-28T19:44:34.855Z,28.88
2022-11-28T19:49:36.824Z,28.70
2022-11-28T19:54:38.551Z,29.92
2022-11-28T19:59:40.242Z,30.15
2022-11-28T20:04:43.473Z,29.25
2022-11-28T20:09:45.699Z,30.08
2022-11-28T20:14:47.769Z,27.13
2022-11-28T20:19:49.504Z,30.70
2022-11-28T20:24:51.377Z,30.15
2022-11-28T20:29:53.117Z,24.40
2022-11-28T20:34:54.841Z,31.60
2022-11-28T20:39:57.721Z,27.67
2022-11-28T20:44:59.365Z,30.13
2022-11-28T20:50:01.242Z,30.30
2022-11-28T20:55:02.924Z,29.95
2022-11-28T21:00:05.343Z,26.58
2022-11-28T21:05:07.280Z,25.30
2022-11-28T21:10:09.139Z,25.05
2022-11-28T21:15:10.960Z,26.58
2022-11-28T21:20:12.889Z,28.38
2022-11-28T21:25:14.942Z,26.60
2022-11-28T21:30:16.645Z,27.00
2022-11-28T21:35:18.334Z,25.80
2022-11-28T21:40:20.003Z,25.70
2022-11-28T21:45:23.863Z,24.75
2022-11-28T21:50:25.667Z,24.13
2022-11-28T21:55:27.952Z,28.55
2022-11-28T22:00:52.276Z,24.65
2022-11-28T22:05:54.769Z,28.48
2022-11-28T22:11:01.049Z,26.67
2022-11-28T22:16:21.350Z,31.58
2022-11-28T22:26:45.172Z,28.60
2022-11-28T22:31:47.949Z,28.48
2022-11-28T22:36:49.635Z,26.98
2022-11-28T22:41:51.334Z,27.85
2022-11-28T22:46:54.571Z,30.38
2022-11-28T22:51:56.294Z,29.42
2022-11-28T22:56:58.219Z,31.15
2022-11-28T23:02:01.214Z,30.05
2022-11-28T23:07:02.952Z,29.75
2022-11-28T23:12:05.313Z,29.40
2022-11-28T23:17:07.060Z,25.45
2022-11-28T23:22:08.662Z,24.83
2022-11-28T23:27:10.579Z,31.15
2022-11-28T23:32:14.065Z,28.75
2022-11-28T23:37:15.767Z,28.33
2022-11-28T23:42:17.355Z,29.23
2022-11-28T23:47:18.983Z,28.30
2022-11-28T23:52:20.651Z,29.65
2022-11-28T23:57:22.519Z,27.33
